sensor_id;sensor_type;location;lat;lon;timestamp;P1;durP1;ratioP1;P2;durP2;ratioP2
10851;SDS011;5479;52.046;6.314;2022-10-16T00:01:37;8.90;;;4.87;;
10851;SDS011;5479;52.046;6.314;2022-10-16T00:04:05;9.80;;;4.77;;
10851;SDS011;5479;52.046;6.314;2022-10-16T00:06:33;7.60;;;5.10;;
10851;SDS011;5479;52.046;6.314;2022-10-16T00:09:01;10.10;;;4.73;;
10851;SDS011;5479;52.046;6.314;2022-10-16T00:11:30;10.00;;;4.90;;
10851;SDS011;5479;52.046;6.314;2022-10-16T00:14:00;8.80;;;4.80;;
10851;SDS011;5479;52.046;6.314;2022-10-16T00:16:31;8.73;;;4.77;;
10851;SDS011;5479;52.046;6.314;2022-10-16T00:18:59;8.80;;;4.87;;
10851;SDS011;5479;52.046;6.314;2022-10-16T00:21:28;8.93;;;4.77;;
10851;SDS011;5479;52.046;6.314;2022-10-16T00:23:57;8.43;;;4.97;;
10851;SDS011;5479;52.046;6.314;2022-10-16T00:26:27;9.43;;;5.63;;
10851;SDS011;5479;52.046;6.314;2022-10-16T00:28:56;8.90;;;5.37;;
10851;SDS011;5479;52.046;6.314;2022-10-16T00:31:24;10.63;;;5.83;;
10851;SDS011;5479;52.046;6.314;2022-10-16T00:33:54;8.90;;;5.23;;
10851;SDS011;5479;52.046;6.314;2022-10-16T00:36:22;12.70;;;5.70;;
10851;SDS011;5479;52.046;6.314;2022-10-16T00:38:52;9.10;;;5.70;;
10851;SDS011;5479;52.046;6.314;2022-10-16T00:41:22;10.60;;;6.13;;
10851;SDS011;5479;52.046;6.314;2022-10-16T00:43:55;9.80;;;6.53;;
10851;SDS011;5479;52.046;6.314;2022-10-16T00:46:25;9.97;;;6.20;;
10851;SDS011;5479;52.046;6.314;2022-10-16T00:48:57;10.97;;;6.60;;
10851;SDS011;5479;52.046;6.314;2022-10-16T00:51:30;9.13;;;6.43;;
10851;SDS011;5479;52.046;6.314;2022-10-16T00:54:00;10.70;;;6.57;;
10851;SDS011;5479;52.046;6.314;2022-10-16T00:56:31;10.20;;;6.40;;
10851;SDS011;5479;52.046;6.314;2022-10-16T00:59:01;11.90;;;6.70;;
10851;SDS011;5479;52.046;6.314;2022-10-16T01:01:34;8.93;;;5.90;;
10851;SDS011;5479;52.046;6.314;2022-10-16T01:04:03;9.17;;;6.50;;
10851;SDS011;5479;52.046;6.314;2022-10-16T01:06:32;9.47;;;6.50;;
10851;SDS011;5479;52.046;6.314;2022-10-16T01:09:13;13.30;;;6.43;;
10851;SDS011;5479;52.046;6.314;2022-10-16T01:11:48;8.33;;;6.60;;
10851;SDS011;5479;52.046;6.314;2022-10-16T01:14:25;10.30;;;6.77;;
10851;SDS011;5479;52.046;6.314;2022-10-16T01:17:00;9.40;;;6.70;;
10851;SDS011;5479;52.046;6.314;2022-10-16T01:22:31;10.97;;;6.93;;
10851;SDS011;5479;52.046;6.314;2022-10-16T01:25:08;12.80;;;6.60;;
10851;SDS011;5479;52.046;6.314;2022-10-16T01:27:41;8.90;;;6.47;;
10851;SDS011;5479;52.046;6.314;2022-10-16T01:30:15;10.37;;;6.73;;
10851;SDS011;5479;52.046;6.314;2022-10-16T01:32:48;10.63;;;6.90;;
10851;SDS011;5479;52.046;6.314;2022-10-16T01:35:22;10.83;;;7.30;;
10851;SDS011;5479;52.046;6.314;2022-10-16T01:37:53;9.07;;;7.27;;
10851;SDS011;5479;52.046;6.314;2022-10-16T01:40:26;10.70;;;7.60;;
10851;SDS011;5479;52.046;6.314;2022-10-16T01:42:58;10.63;;;7.40;;
10851;SDS011;5479;52.046;6.314;2022-10-16T01:45:30;9.53;;;6.80;;
10851;SDS011;5479;52.046;6.314;2022-10-16T01:48:00;9.93;;;7.30;;
10851;SDS011;5479;52.046;6.314;2022-10-16T01:50:31;9.90;;;8.30;;
10851;SDS011;5479;52.046;6.314;2022-10-16T01:53:02;8.60;;;7.13;;
10851;SDS011;5479;52.046;6.314;2022-10-16T01:55:33;10.17;;;7.27;;
10851;SDS011;5479;52.046;6.314;2022-10-16T01:58:09;8.77;;;6.90;;
10851;SDS011;5479;52.046;6.314;2022-10-16T02:00:39;10.83;;;7.60;;
10851;SDS011;5479;52.046;6.314;2022-10-16T02:03:11;9.73;;;7.13;;
10851;SDS011;5479;52.046;6.314;2022-10-16T02:05:42;11.30;;;6.80;;
10851;SDS011;5479;52.046;6.314;2022-10-16T02:08:13;9.63;;;6.70;;
10851;SDS011;5479;52.046;6.314;2022-10-16T02:10:41;10.37;;;6.13;;
10851;SDS011;5479;52.046;6.314;2022-10-16T02:13:12;9.73;;;6.20;;
10851;SDS011;5479;52.046;6.314;2022-10-16T02:15:42;7.40;;;5.90;;
10851;SDS011;5479;52.046;6.314;2022-10-16T02:18:10;9.07;;;5.67;;
10851;SDS011;5479;52.046;6.314;2022-10-16T02:20:40;7.10;;;5.37;;
10851;SDS011;5479;52.046;6.314;2022-10-16T02:23:19;7.23;;;4.90;;
10851;SDS011;5479;52.046;6.314;2022-10-16T02:25:52;7.30;;;5.13;;
10851;SDS011;5479;52.046;6.314;2022-10-16T02:28:23;8.03;;;5.57;;
10851;SDS011;5479;52.046;6.314;2022-10-16T02:30:57;7.27;;;4.67;;
10851;SDS011;5479;52.046;6.314;2022-10-16T02:33:27;8.37;;;4.97;;
10851;SDS011;5479;52.046;6.314;2022-10-16T02:35:57;7.73;;;4.53;;
10851;SDS011;5479;52.046;6.314;2022-10-16T02:38:26;7.63;;;5.20;;
10851;SDS011;5479;52.046;6.314;2022-10-16T02:40:56;7.27;;;4.80;;
10851;SDS011;5479;52.046;6.314;2022-10-16T02:43:25;7.17;;;4.93;;
10851;SDS011;5479;52.046;6.314;2022-10-16T02:45:53;6.67;;;4.70;;
10851;SDS011;5479;52.046;6.314;2022-10-16T02:48:22;7.33;;;5.13;;
10851;SDS011;5479;52.046;6.314;2022-10-16T02:50:50;6.93;;;4.40;;
10851;SDS011;5479;52.046;6.314;2022-10-16T02:53:18;6.70;;;4.60;;
10851;SDS011;5479;52.046;6.314;2022-10-16T02:55:46;6.73;;;4.30;;
10851;SDS011;5479;52.046;6.314;2022-10-16T02:58:14;6.20;;;4.33;;
10851;SDS011;5479;52.046;6.314;2022-10-16T03:00:43;6.80;;;4.40;;
10851;SDS011;5479;52.046;6.314;2022-10-16T03:03:12;7.40;;;4.30;;
10851;SDS011;5479;52.046;6.314;2022-10-16T03:05:39;8.93;;;4.40;;
10851;SDS011;5479;52.046;6.314;2022-10-16T03:08:07;6.73;;;4.20;;
10851;SDS011;5479;52.046;6.314;2022-10-16T03:10:35;6.47;;;3.90;;
10851;SDS011;5479;52.046;6.314;2022-10-16T03:13:03;7.60;;;4.27;;
10851;SDS011;5479;52.046;6.314;2022-10-16T03:15:31;6.07;;;4.00;;
10851;SDS011;5479;52.046;6.314;2022-10-16T03:18:00;5.77;;;3.97;;
10851;SDS011;5479;52.046;6.314;2022-10-16T03:20:28;6.13;;;3.60;;
10851;SDS011;5479;52.046;6.314;2022-10-16T03:22:56;6.87;;;3.70;;
10851;SDS011;5479;52.046;6.314;2022-10-16T03:25:24;6.83;;;4.00;;
10851;SDS011;5479;52.046;6.314;2022-10-16T03:27:52;8.20;;;4.07;;
10851;SDS011;5479;52.046;6.314;2022-10-16T03:30:20;7.10;;;4.00;;
10851;SDS011;5479;52.046;6.314;2022-10-16T03:32:48;7.07;;;4.10;;
10851;SDS011;5479;52.046;6.314;2022-10-16T03:35:21;4.97;;;3.63;;
10851;SDS011;5479;52.046;6.314;2022-10-16T03:37:50;8.20;;;4.03;;
10851;SDS011;5479;52.046;6.314;2022-10-16T03:40:18;7.20;;;3.87;;
10851;SDS011;5479;52.046;6.314;2022-10-16T03:42:46;5.70;;;3.67;;
10851;SDS011;5479;52.046;6.314;2022-10-16T03:45:14;8.80;;;4.20;;
10851;SDS011;5479;52.046;6.314;2022-10-16T03:47:42;5.83;;;4.20;;
10851;SDS011;5479;52.046;6.314;2022-10-16T03:50:10;6.57;;;4.33;;
10851;SDS011;5479;52.046;6.314;2022-10-16T03:52:39;6.63;;;4.20;;
10851;SDS011;5479;52.046;6.314;2022-10-16T03:55:07;5.60;;;4.07;;
10851;SDS011;5479;52.046;6.314;2022-10-16T03:57:35;6.37;;;4.03;;
10851;SDS011;5479;52.046;6.314;2022-10-16T04:00:03;6.70;;;4.13;;
10851;SDS011;5479;52.046;6.314;2022-10-16T04:02:32;6.93;;;4.73;;
10851;SDS011;5479;52.046;6.314;2022-10-16T04:05:00;6.27;;;4.17;;
10851;SDS011;5479;52.046;6.314;2022-10-16T04:07:28;6.03;;;3.90;;
10851;SDS011;5479;52.046;6.314;2022-10-16T04:09:58;6.97;;;4.10;;
10851;SDS011;5479;52.046;6.314;2022-10-16T04:12:26;7.20;;;4.27;;
10851;SDS011;5479;52.046;6.314;2022-10-16T04:14:54;8.60;;;4.37;;
10851;SDS011;5479;52.046;6.314;2022-10-16T04:17:22;6.00;;;4.43;;
10851;SDS011;5479;52.046;6.314;2022-10-16T04:19:51;5.73;;;4.07;;
10851;SDS011;5479;52.046;6.314;2022-10-16T04:22:19;5.90;;;4.13;;
10851;SDS011;5479;52.046;6.314;2022-10-16T04:24:46;6.00;;;4.13;;
10851;SDS011;5479;52.046;6.314;2022-10-16T04:27:16;6.17;;;4.40;;
10851;SDS011;5479;52.046;6.314;2022-10-16T04:29:43;5.87;;;3.93;;
10851;SDS011;5479;52.046;6.314;2022-10-16T04:32:11;7.63;;;4.20;;
10851;SDS011;5479;52.046;6.314;2022-10-16T04:34:39;7.40;;;4.67;;
10851;SDS011;5479;52.046;6.314;2022-10-16T04:37:07;6.33;;;3.83;;
10851;SDS011;5479;52.046;6.314;2022-10-16T04:39:35;7.57;;;4.70;;
10851;SDS011;5479;52.046;6.314;2022-10-16T04:42:03;7.30;;;4.20;;
10851;SDS011;5479;52.046;6.314;2022-10-16T04:44:32;7.00;;;4.43;;
10851;SDS011;5479;52.046;6.314;2022-10-16T04:47:00;6.07;;;4.03;;
10851;SDS011;5479;52.046;6.314;2022-10-16T04:49:28;5.13;;;3.67;;
10851;SDS011;5479;52.046;6.314;2022-10-16T04:51:57;6.63;;;4.03;;
10851;SDS011;5479;52.046;6.314;2022-10-16T04:54:25;7.43;;;4.13;;
10851;SDS011;5479;52.046;6.314;2022-10-16T04:56:53;5.67;;;3.77;;
10851;SDS011;5479;52.046;6.314;2022-10-16T04:59:21;7.13;;;3.90;;
10851;SDS011;5479;52.046;6.314;2022-10-16T05:01:51;5.93;;;3.43;;
10851;SDS011;5479;52.046;6.314;2022-10-16T05:04:19;5.03;;;3.60;;
10851;SDS011;5479;52.046;6.314;2022-10-16T05:06:47;7.07;;;4.00;;
10851;SDS011;5479;52.046;6.314;2022-10-16T05:09:15;5.77;;;3.80;;
10851;SDS011;5479;52.046;6.314;2022-10-16T05:11:43;5.03;;;3.60;;
10851;SDS011;5479;52.046;6.314;2022-10-16T05:14:11;6.07;;;3.40;;
10851;SDS011;5479;52.046;6.314;2022-10-16T05:16:39;6.57;;;4.00;;
10851;SDS011;5479;52.046;6.314;2022-10-16T05:19:08;5.67;;;3.70;;
10851;SDS011;5479;52.046;6.314;2022-10-16T05:21:36;5.53;;;3.67;;
10851;SDS011;5479;52.046;6.314;2022-10-16T05:24:04;5.83;;;3.57;;
10851;SDS011;5479;52.046;6.314;2022-10-16T05:26:32;5.47;;;3.93;;
10851;SDS011;5479;52.046;6.314;2022-10-16T05:29:00;7.07;;;4.03;;
10851;SDS011;5479;52.046;6.314;2022-10-16T05:31:28;5.97;;;3.97;;
10851;SDS011;5479;52.046;6.314;2022-10-16T05:33:57;6.13;;;3.77;;
10851;SDS011;5479;52.046;6.314;2022-10-16T05:36:27;5.90;;;3.90;;
10851;SDS011;5479;52.046;6.314;2022-10-16T05:38:55;6.37;;;3.80;;
10851;SDS011;5479;52.046;6.314;2022-10-16T05:41:23;5.40;;;3.50;;
10851;SDS011;5479;52.046;6.314;2022-10-16T05:43:52;6.90;;;4.30;;
10851;SDS011;5479;52.046;6.314;2022-10-16T05:46:20;6.10;;;3.80;;
10851;SDS011;5479;52.046;6.314;2022-10-16T05:48:51;7.80;;;4.13;;
10851;SDS011;5479;52.046;6.314;2022-10-16T05:51:19;6.63;;;4.03;;
10851;SDS011;5479;52.046;6.314;2022-10-16T05:53:48;6.83;;;3.70;;
10851;SDS011;5479;52.046;6.314;2022-10-16T05:56:16;5.70;;;3.90;;
10851;SDS011;5479;52.046;6.314;2022-10-16T05:58:45;8.63;;;3.90;;
10851;SDS011;5479;52.046;6.314;2022-10-16T06:01:14;7.03;;;3.73;;
10851;SDS011;5479;52.046;6.314;2022-10-16T06:03:43;14.17;;;4.50;;
10851;SDS011;5479;52.046;6.314;2022-10-16T06:06:13;6.60;;;4.37;;
10851;SDS011;5479;52.046;6.314;2022-10-16T06:08:42;6.57;;;4.40;;
10851;SDS011;5479;52.046;6.314;2022-10-16T06:11:14;6.33;;;4.33;;
10851;SDS011;5479;52.046;6.314;2022-10-16T06:13:43;6.63;;;4.10;;
10851;SDS011;5479;52.046;6.314;2022-10-16T06:16:12;6.13;;;4.27;;
10851;SDS011;5479;52.046;6.314;2022-10-16T06:18:40;6.97;;;3.93;;
10851;SDS011;5479;52.046;6.314;2022-10-16T06:21:09;6.30;;;4.10;;
10851;SDS011;5479;52.046;6.314;2022-10-16T06:23:38;6.60;;;4.30;;
10851;SDS011;5479;52.046;6.314;2022-10-16T06:26:06;6.77;;;4.17;;
10851;SDS011;5479;52.046;6.314;2022-10-16T06:28:36;7.10;;;4.17;;
10851;SDS011;5479;52.046;6.314;2022-10-16T06:31:05;8.70;;;4.30;;
10851;SDS011;5479;52.046;6.314;2022-10-16T06:33:35;6.83;;;4.10;;
10851;SDS011;5479;52.046;6.314;2022-10-16T06:36:04;6.30;;;4.20;;
10851;SDS011;5479;52.046;6.314;2022-10-16T06:38:34;6.23;;;4.20;;
10851;SDS011;5479;52.046;6.314;2022-10-16T06:41:03;6.63;;;4.30;;
10851;SDS011;5479;52.046;6.314;2022-10-16T06:43:32;6.80;;;4.13;;
10851;SDS011;5479;52.046;6.314;2022-10-16T06:46:03;6.27;;;4.13;;
10851;SDS011;5479;52.046;6.314;2022-10-16T06:48:33;9.27;;;4.37;;
10851;SDS011;5479;52.046;6.314;2022-10-16T06:51:03;6.90;;;3.90;;
10851;SDS011;5479;52.046;6.314;2022-10-16T06:53:33;7.33;;;3.80;;
10851;SDS011;5479;52.046;6.314;2022-10-16T06:56:09;5.07;;;3.17;;
10851;SDS011;5479;52.046;6.314;2022-10-16T06:58:38;5.47;;;3.10;;
10851;SDS011;5479;52.046;6.314;2022-10-16T07:01:08;5.00;;;2.80;;
10851;SDS011;5479;52.046;6.314;2022-10-16T07:03:37;4.07;;;2.33;;
10851;SDS011;5479;52.046;6.314;2022-10-16T07:06:06;5.17;;;2.33;;
10851;SDS011;5479;52.046;6.314;2022-10-16T07:08:37;4.70;;;2.27;;
10851;SDS011;5479;52.046;6.314;2022-10-16T07:11:07;3.90;;;2.50;;
10851;SDS011;5479;52.046;6.314;2022-10-16T07:13:36;4.60;;;2.30;;
10851;SDS011;5479;52.046;6.314;2022-10-16T07:16:06;5.87;;;3.13;;
10851;SDS011;5479;52.046;6.314;2022-10-16T07:18:38;4.10;;;2.33;;
10851;SDS011;5479;52.046;6.314;2022-10-16T07:21:09;4.30;;;2.47;;
10851;SDS011;5479;52.046;6.314;2022-10-16T07:23:39;3.77;;;2.40;;
10851;SDS011;5479;52.046;6.314;2022-10-16T07:26:08;3.50;;;2.17;;
10851;SDS011;5479;52.046;6.314;2022-10-16T07:28:37;4.47;;;2.20;;
10851;SDS011;5479;52.046;6.314;2022-10-16T07:31:06;4.30;;;2.50;;
10851;SDS011;5479;52.046;6.314;2022-10-16T07:33:39;5.33;;;2.30;;
10851;SDS011;5479;52.046;6.314;2022-10-16T07:36:10;5.93;;;2.70;;
10851;SDS011;5479;52.046;6.314;2022-10-16T07:38:38;5.30;;;2.30;;
10851;SDS011;5479;52.046;6.314;2022-10-16T07:41:06;5.47;;;2.83;;
10851;SDS011;5479;52.046;6.314;2022-10-16T07:43:39;5.63;;;2.30;;
10851;SDS011;5479;52.046;6.314;2022-10-16T07:46:09;4.77;;;2.63;;
10851;SDS011;5479;52.046;6.314;2022-10-16T07:48:37;4.40;;;2.33;;
10851;SDS011;5479;52.046;6.314;2022-10-16T07:51:06;5.20;;;2.60;;
10851;SDS011;5479;52.046;6.314;2022-10-16T07:53:34;4.20;;;2.40;;
10851;SDS011;5479;52.046;6.314;2022-10-16T07:56:02;6.68;;;2.50;;
10851;SDS011;5479;52.046;6.314;2022-10-16T07:58:32;6.07;;;2.40;;
10851;SDS011;5479;52.046;6.314;2022-10-16T08:01:04;5.22;;;2.30;;
10851;SDS011;5479;52.046;6.314;2022-10-16T08:03:34;4.45;;;2.10;;
10851;SDS011;5479;52.046;6.314;2022-10-16T08:06:02;6.80;;;2.53;;
10851;SDS011;5479;52.046;6.314;2022-10-16T08:08:32;4.30;;;2.00;;
10851;SDS011;5479;52.046;6.314;2022-10-16T08:11:00;4.38;;;1.92;;
10851;SDS011;5479;52.046;6.314;2022-10-16T08:13:30;4.25;;;2.00;;
10851;SDS011;5479;52.046;6.314;2022-10-16T08:15:58;5.15;;;1.88;;
10851;SDS011;5479;52.046;6.314;2022-10-16T08:18:26;5.60;;;2.20;;
10851;SDS011;5479;52.046;6.314;2022-10-16T08:20:56;3.67;;;2.10;;
10851;SDS011;5479;52.046;6.314;2022-10-16T08:23:26;5.72;;;2.17;;
10851;SDS011;5479;52.046;6.314;2022-10-16T08:25:56;5.00;;;2.20;;
10851;SDS011;5479;52.046;6.314;2022-10-16T08:28:29;3.97;;;2.30;;
10851;SDS011;5479;52.046;6.314;2022-10-16T08:31:04;5.68;;;2.40;;
10851;SDS011;5479;52.046;6.314;2022-10-16T08:33:32;4.75;;;2.05;;
10851;SDS011;5479;52.046;6.314;2022-10-16T08:36:02;5.32;;;2.35;;
10851;SDS011;5479;52.046;6.314;2022-10-16T08:38:31;4.07;;;2.17;;
10851;SDS011;5479;52.046;6.314;2022-10-16T08:41:02;4.55;;;2.30;;
10851;SDS011;5479;52.046;6.314;2022-10-16T08:43:54;4.63;;;2.22;;
10851;SDS011;5479;52.046;6.314;2022-10-16T08:46:42;6.15;;;2.70;;
10851;SDS011;5479;52.046;6.314;2022-10-16T08:49:18;6.80;;;2.40;;
10851;SDS011;5479;52.046;6.314;2022-10-16T08:51:48;5.10;;;2.38;;
10851;SDS011;5479;52.046;6.314;2022-10-16T08:54:26;3.92;;;2.25;;
10851;SDS011;5479;52.046;6.314;2022-10-16T08:56:57;4.90;;;2.25;;
10851;SDS011;5479;52.046;6.314;2022-10-16T08:59:34;5.43;;;2.42;;
10851;SDS011;5479;52.046;6.314;2022-10-16T09:02:03;6.40;;;2.70;;
10851;SDS011;5479;52.046;6.314;2022-10-16T09:04:54;4.82;;;2.60;;
10851;SDS011;5479;52.046;6.314;2022-10-16T09:07:32;7.55;;;2.42;;
10851;SDS011;5479;52.046;6.314;2022-10-16T09:10:20;5.55;;;2.42;;
10851;SDS011;5479;52.046;6.314;2022-10-16T09:12:57;4.95;;;2.63;;
10851;SDS011;5479;52.046;6.314;2022-10-16T09:15:35;8.98;;;2.80;;
10851;SDS011;5479;52.046;6.314;2022-10-16T09:18:09;5.07;;;2.40;;
10851;SDS011;5479;52.046;6.314;2022-10-16T09:20:45;6.32;;;2.60;;
10851;SDS011;5479;52.046;6.314;2022-10-16T09:23:22;4.25;;;2.30;;
10851;SDS011;5479;52.046;6.314;2022-10-16T09:25:54;6.22;;;2.28;;
10851;SDS011;5479;52.046;6.314;2022-10-16T09:28:23;5.32;;;2.67;;
10851;SDS011;5479;52.046;6.314;2022-10-16T09:30:52;7.18;;;2.70;;
10851;SDS011;5479;52.046;6.314;2022-10-16T09:33:21;5.88;;;2.20;;
10851;SDS011;5479;52.046;6.314;2022-10-16T09:35:53;6.00;;;2.38;;
10851;SDS011;5479;52.046;6.314;2022-10-16T09:38:26;6.15;;;2.60;;
10851;SDS011;5479;52.046;6.314;2022-10-16T09:40:56;4.82;;;2.42;;
10851;SDS011;5479;52.046;6.314;2022-10-16T09:43:26;6.13;;;2.22;;
10851;SDS011;5479;52.046;6.314;2022-10-16T09:46:00;4.65;;;2.08;;
10851;SDS011;5479;52.046;6.314;2022-10-16T09:48:31;4.97;;;2.20;;
10851;SDS011;5479;52.046;6.314;2022-10-16T09:51:04;5.85;;;2.20;;
10851;SDS011;5479;52.046;6.314;2022-10-16T09:53:40;6.47;;;2.20;;
10851;SDS011;5479;52.046;6.314;2022-10-16T09:56:09;7.53;;;2.75;;
10851;SDS011;5479;52.046;6.314;2022-10-16T09:58:41;4.82;;;2.30;;
10851;SDS011;5479;52.046;6.314;2022-10-16T10:01:12;6.78;;;2.65;;
10851;SDS011;5479;52.046;6.314;2022-10-16T10:03:42;5.38;;;2.30;;
10851;SDS011;5479;52.046;6.314;2022-10-16T10:06:16;4.93;;;2.10;;
10851;SDS011;5479;52.046;6.314;2022-10-16T10:08:58;9.85;;;2.45;;
10851;SDS011;5479;52.046;6.314;2022-10-16T10:11:41;7.30;;;2.22;;
10851;SDS011;5479;52.046;6.314;2022-10-16T10:14:22;6.43;;;2.20;;
10851;SDS011;5479;52.046;6.314;2022-10-16T10:16:52;8.15;;;2.83;;
10851;SDS011;5479;52.046;6.314;2022-10-16T10:19:28;9.00;;;2.42;;
10851;SDS011;5479;52.046;6.314;2022-10-16T10:21:56;8.73;;;2.67;;
10851;SDS011;5479;52.046;6.314;2022-10-16T10:24:27;8.05;;;2.40;;
10851;SDS011;5479;52.046;6.314;2022-10-16T10:26:56;8.43;;;2.30;;
10851;SDS011;5479;52.046;6.314;2022-10-16T10:29:41;6.85;;;2.60;;
10851;SDS011;5479;52.046;6.314;2022-10-16T10:32:22;6.55;;;2.25;;
10851;SDS011;5479;52.046;6.314;2022-10-16T10:35:05;7.50;;;2.65;;
10851;SDS011;5479;52.046;6.314;2022-10-16T10:37:45;8.52;;;2.55;;
10851;SDS011;5479;52.046;6.314;2022-10-16T10:40:29;8.07;;;2.40;;
10851;SDS011;5479;52.046;6.314;2022-10-16T10:43:07;6.15;;;2.25;;
10851;SDS011;5479;52.046;6.314;2022-10-16T10:45:43;8.35;;;2.58;;
10851;SDS011;5479;52.046;6.314;2022-10-16T10:48:17;8.30;;;2.38;;
10851;SDS011;5479;52.046;6.314;2022-10-16T10:50:54;8.10;;;2.60;;
10851;SDS011;5479;52.046;6.314;2022-10-16T10:53:33;6.15;;;2.40;;
10851;SDS011;5479;52.046;6.314;2022-10-16T10:56:14;7.95;;;2.70;;
10851;SDS011;5479;52.046;6.314;2022-10-16T11:01:46;7.30;;;2.58;;
10851;SDS011;5479;52.046;6.314;2022-10-16T11:07:17;8.98;;;2.58;;
10851;SDS011;5479;52.046;6.314;2022-10-16T11:09:49;8.70;;;2.70;;
10851;SDS011;5479;52.046;6.314;2022-10-16T11:12:21;10.95;;;2.67;;
10851;SDS011;5479;52.046;6.314;2022-10-16T11:14:54;6.78;;;2.40;;
10851;SDS011;5479;52.046;6.314;2022-10-16T11:17:30;8.63;;;2.78;;
10851;SDS011;5479;52.046;6.314;2022-10-16T11:20:04;9.43;;;2.53;;
10851;SDS011;5479;52.046;6.314;2022-10-16T11:22:39;8.50;;;2.42;;
10851;SDS011;5479;52.046;6.314;2022-10-16T11:25:13;8.48;;;2.40;;
10851;SDS011;5479;52.046;6.314;2022-10-16T11:27:47;7.85;;;2.65;;
10851;SDS011;5479;52.046;6.314;2022-10-16T11:30:20;6.65;;;2.35;;
10851;SDS011;5479;52.046;6.314;2022-10-16T11:32:56;7.88;;;2.45;;
10851;SDS011;5479;52.046;6.314;2022-10-16T11:35:33;9.00;;;2.40;;
10851;SDS011;5479;52.046;6.314;2022-10-16T11:38:09;12.48;;;2.65;;
10851;SDS011;5479;52.046;6.314;2022-10-16T11:40:43;7.45;;;2.53;;
10851;SDS011;5479;52.046;6.314;2022-10-16T11:43:20;9.38;;;2.33;;
10851;SDS011;5479;52.046;6.314;2022-10-16T11:45:52;9.43;;;2.90;;
10851;SDS011;5479;52.046;6.314;2022-10-16T11:48:24;11.40;;;3.22;;
10851;SDS011;5479;52.046;6.314;2022-10-16T11:50:58;8.90;;;2.40;;
10851;SDS011;5479;52.046;6.314;2022-10-16T11:53:37;10.05;;;2.60;;
10851;SDS011;5479;52.046;6.314;2022-10-16T11:56:11;7.97;;;2.45;;
10851;SDS011;5479;52.046;6.314;2022-10-16T11:58:44;9.98;;;2.47;;
10851;SDS011;5479;52.046;6.314;2022-10-16T12:01:22;10.18;;;2.88;;
10851;SDS011;5479;52.046;6.314;2022-10-16T12:03:59;12.27;;;2.80;;
10851;SDS011;5479;52.046;6.314;2022-10-16T12:06:42;6.20;;;2.10;;
10851;SDS011;5479;52.046;6.314;2022-10-16T12:09:15;7.82;;;2.55;;
10851;SDS011;5479;52.046;6.314;2022-10-16T12:11:48;7.07;;;2.30;;
10851;SDS011;5479;52.046;6.314;2022-10-16T12:19:58;9.23;;;2.53;;
10851;SDS011;5479;52.046;6.314;2022-10-16T12:22:29;9.30;;;2.35;;
10851;SDS011;5479;52.046;6.314;2022-10-16T12:24:59;10.50;;;2.40;;
10851;SDS011;5479;52.046;6.314;2022-10-16T12:27:28;10.02;;;2.70;;
10851;SDS011;5479;52.046;6.314;2022-10-16T12:30:00;10.48;;;2.72;;
10851;SDS011;5479;52.046;6.314;2022-10-16T12:32:30;8.68;;;2.78;;
10851;SDS011;5479;52.046;6.314;2022-10-16T12:34:59;8.27;;;2.30;;
10851;SDS011;5479;52.046;6.314;2022-10-16T12:37:30;8.07;;;2.45;;
10851;SDS011;5479;52.046;6.314;2022-10-16T12:40:10;11.10;;;2.80;;
10851;SDS011;5479;52.046;6.314;2022-10-16T12:42:41;8.48;;;2.40;;
10851;SDS011;5479;52.046;6.314;2022-10-16T12:45:27;8.15;;;2.10;;
10851;SDS011;5479;52.046;6.314;2022-10-16T12:47:57;8.02;;;2.40;;
10851;SDS011;5479;52.046;6.314;2022-10-16T12:50:31;10.02;;;2.60;;
10851;SDS011;5479;52.046;6.314;2022-10-16T12:53:02;10.15;;;2.53;;
10851;SDS011;5479;52.046;6.314;2022-10-16T12:55:35;8.85;;;2.55;;
10851;SDS011;5479;52.046;6.314;2022-10-16T12:58:16;7.70;;;2.42;;
10851;SDS011;5479;52.046;6.314;2022-10-16T13:00:56;10.32;;;2.97;;
10851;SDS011;5479;52.046;6.314;2022-10-16T13:03:35;7.43;;;2.33;;
10851;SDS011;5479;52.046;6.314;2022-10-16T13:06:18;7.00;;;2.42;;
10851;SDS011;5479;52.046;6.314;2022-10-16T13:11:54;6.38;;;2.10;;
10851;SDS011;5479;52.046;6.314;2022-10-16T13:14:42;9.45;;;2.58;;
10851;SDS011;5479;52.046;6.314;2022-10-16T13:17:31;8.65;;;2.50;;
10851;SDS011;5479;52.046;6.314;2022-10-16T13:20:12;8.45;;;2.45;;
10851;SDS011;5479;52.046;6.314;2022-10-16T13:22:50;8.13;;;2.45;;
10851;SDS011;5479;52.046;6.314;2022-10-16T13:25:31;8.52;;;2.40;;
10851;SDS011;5479;52.046;6.314;2022-10-16T13:28:06;11.05;;;2.92;;
10851;SDS011;5479;52.046;6.314;2022-10-16T13:30:36;7.78;;;2.53;;
10851;SDS011;5479;52.046;6.314;2022-10-16T13:33:14;7.75;;;2.05;;
10851;SDS011;5479;52.046;6.314;2022-10-16T13:35:50;9.52;;;2.70;;
10851;SDS011;5479;52.046;6.314;2022-10-16T13:38:20;8.90;;;2.33;;
10851;SDS011;5479;52.046;6.314;2022-10-16T13:40:51;9.00;;;2.33;;
10851;SDS011;5479;52.046;6.314;2022-10-16T13:43:23;7.47;;;2.30;;
10851;SDS011;5479;52.046;6.314;2022-10-16T13:45:55;9.68;;;2.40;;
10851;SDS011;5479;52.046;6.314;2022-10-16T13:48:27;10.30;;;2.80;;
10851;SDS011;5479;52.046;6.314;2022-10-16T13:50:59;9.27;;;2.53;;
10851;SDS011;5479;52.046;6.314;2022-10-16T13:53:29;8.18;;;2.60;;
10851;SDS011;5479;52.046;6.314;2022-10-16T13:55:58;9.13;;;2.67;;
10851;SDS011;5479;52.046;6.314;2022-10-16T13:58:27;9.70;;;2.92;;
10851;SDS011;5479;52.046;6.314;2022-10-16T14:00:56;7.75;;;2.35;;
10851;SDS011;5479;52.046;6.314;2022-10-16T14:03:28;11.10;;;3.03;;
10851;SDS011;5479;52.046;6.314;2022-10-16T14:05:57;7.93;;;2.60;;
10851;SDS011;5479;52.046;6.314;2022-10-16T14:08:28;11.95;;;2.67;;
10851;SDS011;5479;52.046;6.314;2022-10-16T14:10:58;6.53;;;2.22;;
10851;SDS011;5479;52.046;6.314;2022-10-16T14:13:30;7.22;;;2.40;;
10851;SDS011;5479;52.046;6.314;2022-10-16T14:16:00;9.02;;;2.17;;
10851;SDS011;5479;52.046;6.314;2022-10-16T14:18:33;8.48;;;2.33;;
10851;SDS011;5479;52.046;6.314;2022-10-16T14:21:02;8.35;;;2.63;;
10851;SDS011;5479;52.046;6.314;2022-10-16T14:23:35;9.07;;;2.55;;
10851;SDS011;5479;52.046;6.314;2022-10-16T14:26:12;8.73;;;2.92;;
10851;SDS011;5479;52.046;6.314;2022-10-16T14:28:42;9.65;;;2.58;;
10851;SDS011;5479;52.046;6.314;2022-10-16T14:31:23;7.63;;;2.40;;
10851;SDS011;5479;52.046;6.314;2022-10-16T14:33:58;5.88;;;2.42;;
10851;SDS011;5479;52.046;6.314;2022-10-16T14:36:28;6.88;;;2.25;;
10851;SDS011;5479;52.046;6.314;2022-10-16T14:38:59;9.18;;;2.60;;
10851;SDS011;5479;52.046;6.314;2022-10-16T14:41:30;6.35;;;2.53;;
10851;SDS011;5479;52.046;6.314;2022-10-16T14:44:00;9.07;;;2.78;;
10851;SDS011;5479;52.046;6.314;2022-10-16T14:46:33;10.82;;;2.63;;
10851;SDS011;5479;52.046;6.314;2022-10-16T14:49:12;8.57;;;2.50;;
10851;SDS011;5479;52.046;6.314;2022-10-16T14:51:44;8.15;;;2.33;;
10851;SDS011;5479;52.046;6.314;2022-10-16T14:54:12;8.18;;;2.20;;
10851;SDS011;5479;52.046;6.314;2022-10-16T14:56:43;7.80;;;2.30;;
10851;SDS011;5479;52.046;6.314;2022-10-16T14:59:16;7.20;;;2.40;;
10851;SDS011;5479;52.046;6.314;2022-10-16T15:01:47;8.77;;;2.40;;
10851;SDS011;5479;52.046;6.314;2022-10-16T15:04:17;8.02;;;2.72;;
10851;SDS011;5479;52.046;6.314;2022-10-16T15:06:45;7.43;;;2.30;;
10851;SDS011;5479;52.046;6.314;2022-10-16T15:09:13;11.20;;;2.58;;
10851;SDS011;5479;52.046;6.314;2022-10-16T15:11:41;8.57;;;2.40;;
10851;SDS011;5479;52.046;6.314;2022-10-16T15:14:10;8.48;;;2.75;;
10851;SDS011;5479;52.046;6.314;2022-10-16T15:16:40;7.47;;;2.33;;
10851;SDS011;5479;52.046;6.314;2022-10-16T15:19:08;6.15;;;2.10;;
10851;SDS011;5479;52.046;6.314;2022-10-16T15:21:39;7.13;;;2.28;;
10851;SDS011;5479;52.046;6.314;2022-10-16T15:24:08;8.57;;;2.20;;
10851;SDS011;5479;52.046;6.314;2022-10-16T15:26:38;7.15;;;2.28;;
10851;SDS011;5479;52.046;6.314;2022-10-16T15:29:07;9.80;;;2.50;;
10851;SDS011;5479;52.046;6.314;2022-10-16T15:31:35;7.15;;;2.28;;
10851;SDS011;5479;52.046;6.314;2022-10-16T15:34:04;5.45;;;2.00;;
10851;SDS011;5479;52.046;6.314;2022-10-16T15:36:33;6.75;;;2.60;;
10851;SDS011;5479;52.046;6.314;2022-10-16T15:39:05;7.43;;;2.10;;
10851;SDS011;5479;52.046;6.314;2022-10-16T15:41:37;8.50;;;2.17;;
10851;SDS011;5479;52.046;6.314;2022-10-16T15:44:06;7.13;;;2.58;;